»·PEaware :: N915MM KAPA-KMLS

N915MM :: KAPA-KMLS

FLIGHT INFORMATION

Flight Status: Arrived
Operator: Privately registered:
United States
More flights under this callsign
Pilot: Tyler S. (27221)
Aircraft: SOCATA TBM-900
(TBM9)
More flights by this aircraft type
Origin: KAPA Centennial
United States
Destination: KMLS Wiley
United States
More flights between these airports :: More routes between these airports
Route: +YELLO4 CYS
File this flight plan on PilotEdge
Remarks:
Altitude:
(Current/Filed)
24,000ft
Speed:
(Current/Filed)
300kts
Departed: 24-Oct-20 12:06 PM
Arrived: 24-Oct-20 01:49 PM
Distance/Time
Traveled:
414nm/1:42
Distance/Time
To Go:
Arrived

Flight Plot

Page will automatically refresh every two minutes.

Flight plan parsing failed; only flown route is shown


Map Options




Map Legend


Flown Route
Filed Route
Departure Airport
Arrival Airport
Navaid (VOR, NDB)
Fix

Horizontal Profiles

Position Reports

Time Latitude Longitude Heading Altitude Ground
Speed
24-Oct-20 11:38 39.576687 -104.848732 270 5887ft 0kts
24-Oct-20 11:40 39.576687 -104.848732 270 5887ft 0kts
24-Oct-20 11:41 39.576687 -104.848732 270 5887ft 0kts
24-Oct-20 11:42 39.576687 -104.848732 270 5887ft 0kts
24-Oct-20 11:43 39.576687 -104.848732 270 5887ft 0kts
24-Oct-20 11:44 39.576687 -104.848732 270 5887ft 0kts
24-Oct-20 11:45 39.576687 -104.848732 270 5887ft 0kts
24-Oct-20 11:46 39.576687 -104.848732 270 5887ft 0kts
24-Oct-20 11:47 39.576687 -104.848732 270 5887ft 0kts
24-Oct-20 11:48 39.576687 -104.848732 270 5887ft 0kts
24-Oct-20 11:49 39.576687 -104.848732 270 5887ft 0kts
24-Oct-20 11:50 39.576687 -104.848732 270 5887ft 0kts
24-Oct-20 11:51 39.576687 -104.848732 270 5887ft 0kts
24-Oct-20 11:52 39.576687 -104.848732 270 5887ft 0kts
24-Oct-20 11:53 39.576687 -104.848732 270 5887ft 0kts
24-Oct-20 11:54 39.576687 -104.848732 270 5887ft 0kts
24-Oct-20 11:54 39.576687 -104.848732 270 5887ft 0kts
24-Oct-20 11:56 39.576687 -104.848732 270 5887ft 0kts
24-Oct-20 11:56 39.576897 -104.848980 353 5887ft 5kts
24-Oct-20 11:58 39.574134 -104.849606 178 5887ft 16kts
24-Oct-20 11:58 39.570832 -104.849458 176 5887ft 12kts
24-Oct-20 11:59 39.566417 -104.849248 177 5887ft 15kts
24-Oct-20 12:00 39.561964 -104.849039 172 5887ft 16kts
24-Oct-20 12:01 39.561336 -104.848753 249 5887ft 0kts
24-Oct-20 12:02 39.561336 -104.848753 249 5887ft 0kts
24-Oct-20 12:03 39.561109 -104.848988 186 5887ft 8kts
24-Oct-20 12:05 39.556808 -104.849247 269 5887ft 7kts
24-Oct-20 12:05 39.558804 -104.850318 358 5887ft 61kts
24-Oct-20 12:06 39.592013 -104.850893 358 6953ft 137kts
24-Oct-20 12:07 39.635441 -104.850662 358 8064ft 192kts
24-Oct-20 12:08 39.691502 -104.848841 359 9849ft 176kts
24-Oct-20 12:09 39.739709 -104.843869 354 12108ft 177kts
24-Oct-20 12:10 39.789741 -104.838985 350 14413ft 178kts
24-Oct-20 12:11 39.840287 -104.834017 347 16735ft 179kts
24-Oct-20 12:12 39.890252 -104.829160 345 18931ft 182kts
24-Oct-20 12:13 39.942351 -104.824098 346 21012ft 190kts
24-Oct-20 12:14 39.996382 -104.818770 346 23119ft 197kts
24-Oct-20 12:15 40.055809 -104.813062 348 23887ft 237kts
24-Oct-20 12:16 40.128105 -104.805860 350 23880ft 275kts
24-Oct-20 12:17 40.208295 -104.797794 351 23881ft 287kts
24-Oct-20 12:18 40.289725 -104.789665 351 23900ft 291kts
24-Oct-20 12:19 40.371772 -104.781470 351 23910ft 292kts
24-Oct-20 12:20 40.454714 -104.773191 351 23912ft 293kts
24-Oct-20 12:21 40.537598 -104.764885 351 23905ft 294kts
24-Oct-20 12:22 40.621822 -104.756396 351 23912ft 293kts
24-Oct-20 12:23 40.706789 -104.747852 351 23913ft 294kts
24-Oct-20 12:24 40.790036 -104.739449 350 23906ft 294kts
24-Oct-20 12:25 40.871884 -104.745257 343 23900ft 286kts
24-Oct-20 12:26 40.953301 -104.751899 343 23904ft 285kts
24-Oct-20 12:27 41.034250 -104.758469 343 23897ft 286kts
24-Oct-20 12:28 41.115572 -104.765116 343 23900ft 287kts
24-Oct-20 12:29 41.196358 -104.771711 343 23906ft 287kts
24-Oct-20 12:30 41.276035 -104.785646 338 23896ft 281kts
24-Oct-20 12:31 41.355348 -104.801225 338 23893ft 281kts
24-Oct-20 12:32 41.434220 -104.816734 338 23898ft 282kts
24-Oct-20 12:33 41.513808 -104.832432 338 23892ft 282kts
24-Oct-20 12:34 41.593193 -104.848136 338 23891ft 282kts
24-Oct-20 12:35 41.673300 -104.863972 338 23891ft 283kts
24-Oct-20 12:36 41.752542 -104.879727 338 23899ft 281kts
24-Oct-20 12:37 41.830891 -104.895357 338 23897ft 281kts
24-Oct-20 12:38 41.909571 -104.911047 338 23895ft 283kts
24-Oct-20 12:39 41.988107 -104.926774 338 23907ft 281kts
24-Oct-20 12:40 42.066359 -104.942474 337 23947ft 280kts
24-Oct-20 12:41 42.144874 -104.958280 337 23957ft 280kts
24-Oct-20 12:42 42.223865 -104.974210 337 23958ft 281kts
24-Oct-20 12:43 42.302618 -104.990132 337 23958ft 281kts
24-Oct-20 12:44 42.382048 -105.006229 337 23958ft 281kts
24-Oct-20 12:45 42.462257 -105.022532 337 23959ft 280kts
24-Oct-20 12:46 42.542047 -105.038788 337 23959ft 280kts
24-Oct-20 12:47 42.622164 -105.055151 337 23958ft 280kts
24-Oct-20 12:48 42.702636 -105.071635 337 23956ft 280kts
24-Oct-20 12:49 42.784399 -105.088415 336 23954ft 280kts
24-Oct-20 12:50 42.867503 -105.105534 336 23953ft 279kts
24-Oct-20 12:51 42.949784 -105.122512 336 23952ft 279kts
24-Oct-20 12:52 43.030896 -105.139315 336 23952ft 279kts
24-Oct-20 12:53 43.110675 -105.155865 336 23962ft 279kts
24-Oct-20 12:54 43.189835 -105.172348 336 23976ft 278kts
24-Oct-20 12:55 43.268854 -105.188832 336 23988ft 278kts
24-Oct-20 12:56 43.348034 -105.205403 336 23987ft 278kts
24-Oct-20 12:57 43.426674 -105.221892 336 23987ft 278kts
24-Oct-20 12:58 43.504828 -105.238334 336 23987ft 278kts
24-Oct-20 12:59 43.582855 -105.254777 335 23987ft 277kts
24-Oct-20 13:00 43.660964 -105.271299 335 23986ft 277kts
24-Oct-20 13:01 43.739367 -105.287918 335 24008ft 276kts
24-Oct-20 13:02 43.817860 -105.304601 335 24044ft 276kts
24-Oct-20 13:03 43.895804 -105.321216 335 24059ft 276kts
24-Oct-20 13:04 43.974809 -105.338100 335 24059ft 276kts
24-Oct-20 13:05 44.054274 -105.355119 335 24059ft 276kts
24-Oct-20 13:06 44.134507 -105.372355 335 24058ft 276kts
24-Oct-20 13:07 44.214007 -105.389481 335 24057ft 276kts
24-Oct-20 13:08 44.293600 -105.406680 335 24057ft 276kts
24-Oct-20 13:09 44.372930 -105.423858 335 24062ft 277kts
24-Oct-20 13:10 44.452101 -105.441053 335 24071ft 277kts
24-Oct-20 13:11 44.531696 -105.458391 335 24075ft 277kts
24-Oct-20 13:12 44.610196 -105.475535 335 24075ft 277kts
24-Oct-20 13:13 44.690456 -105.493112 335 24075ft 277kts
24-Oct-20 13:14 44.770115 -105.510640 335 23197ft 273kts
24-Oct-20 13:15 44.844761 -105.534194 332 21556ft 253kts
24-Oct-20 13:16 44.912822 -105.556516 333 20780ft 240kts
24-Oct-20 13:17 44.979835 -105.578610 333 20219ft 240kts
24-Oct-20 13:18 45.049002 -105.601502 335 19689ft 259kts
24-Oct-20 13:19 45.123095 -105.625994 336 19155ft 270kts
24-Oct-20 13:20 45.199518 -105.651344 336 18602ft 274kts
24-Oct-20 13:21 45.276963 -105.677099 337 18104ft 276kts
24-Oct-20 13:22 45.354581 -105.702999 338 17603ft 277kts
24-Oct-20 13:23 45.430398 -105.728374 338 17090ft 270kts
24-Oct-20 13:24 45.505879 -105.753707 339 16590ft 272kts
24-Oct-20 13:25 45.582153 -105.779366 340 16084ft 273kts
24-Oct-20 13:26 45.657935 -105.804941 341 15175ft 257kts
24-Oct-20 13:27 45.727329 -105.828444 343 14058ft 245kts
24-Oct-20 13:28 45.793837 -105.851006 345 12974ft 226kts
24-Oct-20 13:29 45.851229 -105.870520 347 12037ft 195kts
24-Oct-20 13:30 45.902860 -105.888093 348 11212ft 184kts
24-Oct-20 13:31 45.953142 -105.905234 350 10402ft 179kts
24-Oct-20 13:33 46.004945 -105.922927 351 9562ft 177kts
24-Oct-20 13:34 46.056224 -105.940470 352 8726ft 176kts
24-Oct-20 13:35 46.105881 -105.957498 352 7918ft 174kts
24-Oct-20 13:36 46.155973 -105.974751 352 7090ft 172kts
24-Oct-20 13:37 46.196468 -106.012876 328 6990ft 155kts
24-Oct-20 13:38 46.233106 -106.054354 329 6625ft 161kts
24-Oct-20 13:39 46.272382 -106.098928 329 5780ft 164kts
24-Oct-20 13:40 46.307504 -106.104061 45 5491ft 116kts
24-Oct-20 13:41 46.326856 -106.070880 50 5461ft 83kts
24-Oct-20 13:42 46.339533 -106.047720 50 5304ft 77kts
24-Oct-20 13:43 46.353483 -106.022100 50 4831ft 75kts
24-Oct-20 13:44 46.366573 -105.998098 49 4396ft 72kts
24-Oct-20 13:45 46.379573 -105.974115 47 4017ft 73kts
24-Oct-20 13:46 46.392909 -105.949688 45 3571ft 75kts
24-Oct-20 13:47 46.406365 -105.924902 45 3143ft 76kts
24-Oct-20 13:48 46.419858 -105.900014 45 2737ft 73kts
24-Oct-20 13:49 46.427899 -105.885312 53 2632ft 17kts
24-Oct-20 13:50 46.428758 -105.877663 88 2632ft 20kts
24-Oct-20 13:50 46.426958 -105.875914 178 2632ft 10kts
24-Oct-20 13:52 46.426490 -105.875423 297 2632ft 0kts
24-Oct-20 13:52 46.426490 -105.875423 297 2632ft 0kts
24-Oct-20 13:54 46.426489 -105.875423 297 2632ft 0kts
24-Oct-20 13:54 46.426489 -105.875423 297 2632ft 0kts
24-Oct-20 13:55 46.426489 -105.875423 297 2632ft 0kts
24-Oct-20 13:56 46.426489 -105.875423 297 2632ft 0kts
24-Oct-20 13:57 46.426489 -105.875423 297 2632ft 0kts
24-Oct-20 13:58 46.426489 -105.875423 297 2632ft 0kts
24-Oct-20 13:59 46.426489 -105.875423 297 2632ft 0kts
24-Oct-20 14:00 46.426489 -105.875423 297 2632ft 0kts
24-Oct-20 14:01 46.426489 -105.875423 297 2632ft 0kts
24-Oct-20 14:02 46.426489 -105.875423 297 2632ft 0kts

Navigation Log

Ident Type
Flight plan parsing failed, navigation log unavailable